Time;durP1;ratioP1;P1;durP2;ratioP2;P2;SDS_P1;SDS_P2;PMS_P1;PMS_P2;Temp;Humidity;BMP_temperature;BMP_pressure;BME280_temperature;BME280_humidity;BME280_pressure;Samples;Min_cycle;Max_cycle;Signal;HPM_P1;HPM_P2
2022/07/19 00:02:05;;;;;;;15.60;10.45;;;20.40;99.90;;;;;;5112472;28;20065;-77
2022/07/19 00:04:31;;;;;;;15.40;10.57;;;20.40;99.90;;;;;;5111829;28;20076;-77
2022/07/19 00:06:57;;;;;;;14.13;10.05;;;20.40;99.90;;;;;;5111413;27;20024;-76
2022/07/19 00:09:25;;;;;;;15.60;9.95;;;20.40;99.90;;;;;;5112294;27;20050;-77
2022/07/19 00:11:51;;;;;;;18.30;10.43;;;20.40;99.90;;;;;;5112366;28;20552;-76
2022/07/19 00:14:18;;;;;;;15.02;10.07;;;20.40;99.90;;;;;;5110896;28;20152;-76
2022/07/19 00:16:43;;;;;;;14.85;10.77;;;20.30;99.90;;;;;;5112558;28;20032;-76
2022/07/19 00:19:09;;;;;;;14.80;9.98;;;20.30;99.90;;;;;;5110892;28;20421;-76
2022/07/19 00:21:35;;;;;;;12.32;9.52;;;20.30;99.90;;;;;;5093660;28;20028;-76
2022/07/19 00:24:01;;;;;;;16.83;10.23;;;20.30;99.90;;;;;;5112835;27;20055;-77
2022/07/19 00:26:28;;;;;;;14.48;10.05;;;20.20;99.90;;;;;;5111253;28;20380;-77
2022/07/19 00:28:54;;;;;;;15.75;9.85;;;20.20;99.90;;;;;;5113904;28;20517;-77
2022/07/19 00:31:24;;;;;;;15.23;10.55;;;20.20;99.90;;;;;;5118979;28;20246;-77
2022/07/19 00:33:52;;;;;;;16.52;10.68;;;20.20;99.90;;;;;;5119311;28;20034;-75
2022/07/19 00:36:19;;;;;;;13.70;10.30;;;20.10;99.90;;;;;;5111410;28;20095;-76
2022/07/19 00:38:45;;;;;;;14.70;9.98;;;20.10;99.90;;;;;;5109643;28;20085;-77
2022/07/19 00:41:11;;;;;;;15.18;10.50;;;20.00;99.90;;;;;;5110646;27;20026;-77
2022/07/19 00:43:42;;;;;;;17.20;10.32;;;20.00;99.90;;;;;;5110523;28;20027;-77
2022/07/19 00:46:15;;;;;;;16.48;10.68;;;20.00;99.90;;;;;;5112428;27;20023;-76
2022/07/19 00:48:42;;;;;;;16.73;10.60;;;19.90;99.90;;;;;;5110873;28;20035;-76
2022/07/19 00:51:09;;;;;;;15.45;10.57;;;19.90;99.90;;;;;;5112560;28;20032;-78
2022/07/19 00:53:37;;;;;;;13.25;9.43;;;19.80;99.90;;;;;;5111261;28;20024;-77
2022/07/19 00:56:07;;;;;;;14.52;9.30;;;19.80;99.90;;;;;;5095818;28;20437;-77
2022/07/19 00:58:38;;;;;;;19.02;10.77;;;19.80;99.90;;;;;;5112242;28;20701;-77
2022/07/19 01:01:06;;;;;;;13.98;9.52;;;19.70;99.90;;;;;;5111341;28;20102;-77
2022/07/19 01:03:35;;;;;;;16.25;10.38;;;19.70;99.90;;;;;;5111747;28;20020;-77
2022/07/19 01:06:01;;;;;;;15.25;10.02;;;19.70;99.90;;;;;;5112176;27;20608;-77
2022/07/19 01:08:26;;;;;;;15.00;10.15;;;19.70;99.90;;;;;;5110217;28;20107;-77
2022/07/19 01:10:52;;;;;;;14.38;9.32;;;19.70;99.90;;;;;;5093732;28;20491;-77
2022/07/19 01:13:18;;;;;;;13.07;9.80;;;19.60;99.90;;;;;;5111801;28;20106;-76
2022/07/19 01:15:44;;;;;;;15.43;10.18;;;19.60;99.90;;;;;;5109743;27;20027;-77
2022/07/19 01:18:10;;;;;;;14.65;10.27;;;19.60;99.90;;;;;;5111764;28;20035;-77
2022/07/19 01:20:36;;;;;;;14.15;10.05;;;19.60;99.90;;;;;;5110501;28;20027;-77
2022/07/19 01:23:02;;;;;;;16.08;10.23;;;19.60;99.90;;;;;;5109091;28;20133;-78
2022/07/19 01:25:32;;;;;;;13.57;10.57;;;19.60;99.90;;;;;;5108702;28;20024;-77
2022/07/19 01:27:58;;;;;;;13.55;9.35;;;19.60;99.90;;;;;;5109395;28;20099;-77
2022/07/19 01:30:25;;;;;;;13.35;10.18;;;19.60;99.90;;;;;;5095909;28;20035;-76
2022/07/19 01:32:51;;;;;;;14.95;10.10;;;19.50;99.90;;;;;;5110698;28;20098;-78
2022/07/19 01:35:17;;;;;;;17.60;10.52;;;19.50;99.90;;;;;;5109932;28;20027;-77
2022/07/19 01:37:43;;;;;;;14.98;9.75;;;19.40;99.90;;;;;;5113939;28;20089;-78
2022/07/19 01:40:14;;;;;;;14.35;10.23;;;19.40;99.90;;;;;;5111787;28;20512;-76
2022/07/19 01:42:40;;;;;;;15.93;11.15;;;19.40;99.90;;;;;;5117345;27;20028;-77
2022/07/19 01:45:08;;;;;;;13.75;10.05;;;19.30;99.90;;;;;;5110576;28;20023;-78
2022/07/19 01:47:33;;;;;;;13.90;9.40;;;19.30;99.90;;;;;;5110103;28;20106;-77
2022/07/19 01:49:59;;;;;;;14.70;10.32;;;19.30;99.90;;;;;;5111323;28;20106;-77
2022/07/19 01:52:25;;;;;;;13.13;9.35;;;19.20;99.90;;;;;;5108018;28;20047;-77
2022/07/19 01:54:53;;;;;;;14.20;9.48;;;19.20;99.90;;;;;;5111379;28;20035;-77
2022/07/19 01:57:22;;;;;;;13.93;10.05;;;19.20;99.90;;;;;;5106936;28;20020;-77
2022/07/19 01:59:48;;;;;;;15.23;10.05;;;19.20;99.90;;;;;;5111018;28;20027;-78
2022/07/19 02:02:13;;;;;;;14.35;9.98;;;19.20;99.90;;;;;;5109849;28;20035;-78
2022/07/19 02:04:41;;;;;;;15.98;9.95;;;19.10;99.90;;;;;;5111278;28;20032;-77
2022/07/19 02:07:07;;;;;;;15.63;9.70;;;19.10;99.90;;;;;;5115086;28;20031;-77
2022/07/19 02:09:33;;;;;;;14.38;10.02;;;19.10;99.90;;;;;;5125780;28;20084;-78
2022/07/19 02:11:58;;;;;;;13.30;9.85;;;19.10;99.90;;;;;;5123057;28;20054;-79
2022/07/19 02:14:24;;;;;;;13.35;9.77;;;19.10;99.90;;;;;;5114006;28;20023;-77
2022/07/19 02:16:50;;;;;;;15.05;9.82;;;19.10;99.90;;;;;;5111679;28;20410;-78
2022/07/19 02:19:16;;;;;;;13.23;9.32;;;19.00;99.90;;;;;;5107920;28;20059;-76
2022/07/19 02:21:41;;;;;;;14.40;9.85;;;19.10;99.90;;;;;;5110582;28;20016;-77
2022/07/19 02:24:08;;;;;;;16.00;10.57;;;19.00;99.90;;;;;;5109325;28;20051;-76
2022/07/19 02:26:34;;;;;;;13.27;10.15;;;19.00;99.90;;;;;;5110843;28;20110;-79
2022/07/19 02:29:03;;;;;;;16.30;10.43;;;19.00;99.90;;;;;;5090305;28;20039;-77
2022/07/19 02:31:28;;;;;;;13.80;9.35;;;19.00;99.90;;;;;;5108577;28;20030;-77
2022/07/19 02:33:54;;;;;;;13.48;10.07;;;19.00;99.90;;;;;;5106431;28;20028;-78
2022/07/19 02:36:20;;;;;;;15.70;9.95;;;18.90;99.90;;;;;;5110589;28;20024;-77
2022/07/19 02:38:46;;;;;;;13.95;10.00;;;18.90;99.90;;;;;;5110422;28;20028;-77
2022/07/19 02:41:13;;;;;;;15.25;10.02;;;18.90;99.90;;;;;;5109448;28;20463;-79
2022/07/19 02:43:39;;;;;;;15.05;10.43;;;18.90;99.90;;;;;;5110958;28;20027;-77
2022/07/19 02:46:05;;;;;;;12.95;9.25;;;18.90;99.90;;;;;;5109471;28;20101;-77
2022/07/19 02:48:30;;;;;;;14.15;10.15;;;18.90;99.90;;;;;;5108764;28;20058;-77
2022/07/19 02:50:56;;;;;;;14.15;9.93;;;18.90;99.90;;;;;;5108070;28;20024;-77
2022/07/19 02:53:22;;;;;;;13.63;9.90;;;18.90;99.90;;;;;;5108422;28;20024;-79
2022/07/19 02:55:50;;;;;;;14.23;10.02;;;18.80;99.90;;;;;;5104590;28;20119;-78
2022/07/19 02:58:16;;;;;;;17.15;10.15;;;18.80;99.90;;;;;;5107955;28;20441;-79
2022/07/19 03:00:42;;;;;;;15.20;9.90;;;18.80;99.90;;;;;;5090665;28;20024;-78
2022/07/19 03:05:55;;;;;;;13.07;9.52;;;18.70;99.90;;;;;;5109338;28;20020;-78
2022/07/19 03:08:22;;;;;;;16.23;10.00;;;18.70;99.90;;;;;;5093007;28;20551;-77
2022/07/19 03:10:50;;;;;;;13.35;9.63;;;18.70;99.90;;;;;;5112725;28;20149;-77
2022/07/19 03:13:16;;;;;;;13.70;9.38;;;18.70;99.90;;;;;;5113356;28;20055;-78
2022/07/19 03:15:42;;;;;;;13.07;9.32;;;18.60;99.90;;;;;;5113522;28;20051;-76
2022/07/19 03:18:07;;;;;;;15.05;10.38;;;18.60;99.90;;;;;;5113778;28;20071;-76
2022/07/19 03:20:34;;;;;;;13.70;10.07;;;18.60;99.90;;;;;;5114958;28;20027;-76
2022/07/19 03:23:00;;;;;;;14.00;9.90;;;18.60;99.90;;;;;;5111479;28;20464;-76
2022/07/19 03:25:25;;;;;;;14.05;9.77;;;18.50;99.90;;;;;;5106472;28;20100;-76
2022/07/19 03:27:51;;;;;;;14.13;9.75;;;18.50;99.90;;;;;;5109641;28;20020;-77
2022/07/19 03:30:17;;;;;;;14.38;9.70;;;18.60;99.90;;;;;;5109140;28;20032;-77
2022/07/19 03:32:42;;;;;;;14.70;10.05;;;18.60;99.90;;;;;;5124229;27;20035;-77
2022/07/19 03:35:11;;;;;;;13.98;9.85;;;18.60;99.90;;;;;;5111405;28;20372;-76
2022/07/19 03:37:37;;;;;;;14.77;10.48;;;18.60;99.90;;;;;;5105605;28;20023;-77
2022/07/19 03:40:11;;;;;;;15.48;10.57;;;18.50;99.90;;;;;;5107966;28;20028;-76
2022/07/19 03:42:37;;;;;;;15.93;9.75;;;18.60;99.90;;;;;;5111241;28;20023;-77
2022/07/19 03:45:03;;;;;;;16.15;9.57;;;18.60;99.90;;;;;;5109645;28;20027;-76
2022/07/19 03:47:29;;;;;;;13.13;9.77;;;18.60;99.90;;;;;;5111186;28;20020;-78
2022/07/19 03:49:55;;;;;;;14.52;9.40;;;18.60;99.90;;;;;;5109878;28;20395;-76
2022/07/19 03:52:20;;;;;;;14.25;10.18;;;18.60;99.90;;;;;;5088423;28;20027;-74
2022/07/19 03:54:46;;;;;;;17.52;9.80;;;18.60;99.90;;;;;;5108311;28;20055;-76
2022/07/19 03:57:12;;;;;;;17.13;9.60;;;18.60;99.90;;;;;;5092022;28;20024;-76
2022/07/19 03:59:37;;;;;;;16.45;9.32;;;18.60;99.90;;;;;;5107306;28;20100;-77
2022/07/19 04:02:03;;;;;;;11.98;9.05;;;18.60;99.90;;;;;;5108522;28;20024;-77
2022/07/19 04:04:29;;;;;;;14.30;9.65;;;18.60;99.90;;;;;;5111460;28;20281;-76
2022/07/19 04:06:55;;;;;;;13.70;9.15;;;18.60;99.90;;;;;;5109327;28;20032;-77
2022/07/19 04:09:21;;;;;;;13.40;9.13;;;18.60;99.90;;;;;;5113346;28;20028;-77
2022/07/19 04:11:46;;;;;;;14.02;9.90;;;18.60;99.90;;;;;;5108433;28;20065;-77
2022/07/19 04:14:12;;;;;;;13.00;9.77;;;18.60;99.90;;;;;;5105913;28;20031;-77
2022/07/19 04:16:38;;;;;;;12.57;9.05;;;18.70;99.90;;;;;;5108757;28;20040;-78
2022/07/19 04:19:03;;;;;;;13.88;9.82;;;18.70;99.90;;;;;;5110651;28;20032;-77
2022/07/19 04:21:29;;;;;;;12.52;9.70;;;18.70;99.90;;;;;;5108998;28;20027;-78
2022/07/19 04:23:55;;;;;;;12.73;9.23;;;18.70;99.90;;;;;;5087691;28;20480;-77
2022/07/19 04:26:20;;;;;;;14.05;9.73;;;18.70;99.90;;;;;;5108829;28;20574;-77
2022/07/19 04:28:46;;;;;;;16.73;10.13;;;18.70;99.90;;;;;;5107753;28;20107;-78
2022/07/19 04:31:12;;;;;;;12.60;9.15;;;18.70;99.90;;;;;;5100991;28;20031;-76
2022/07/19 04:33:37;;;;;;;12.73;9.93;;;18.70;99.90;;;;;;5109188;28;20075;-77
2022/07/19 04:36:03;;;;;;;15.02;10.27;;;18.70;99.90;;;;;;5107247;28;20031;-77
2022/07/19 04:38:29;;;;;;;12.88;9.07;;;18.70;99.90;;;;;;5092135;28;20059;-77
2022/07/19 04:40:54;;;;;;;13.48;9.18;;;18.70;99.90;;;;;;5100236;28;20510;-77
2022/07/19 04:43:20;;;;;;;13.07;9.15;;;18.80;99.90;;;;;;5109612;28;20506;-77
2022/07/19 04:45:46;;;;;;;12.55;8.57;;;18.80;99.90;;;;;;5105290;28;20514;-76
2022/07/19 04:48:13;;;;;;;14.23;9.18;;;18.90;99.90;;;;;;5111973;28;20399;-76
2022/07/19 04:50:40;;;;;;;11.52;9.38;;;18.90;99.90;;;;;;5109319;28;20034;-76
2022/07/19 04:53:06;;;;;;;11.68;8.77;;;19.00;99.90;;;;;;5108052;28;20033;-76
2022/07/19 04:55:32;;;;;;;14.18;9.15;;;19.00;99.90;;;;;;5107148;28;20475;-76
2022/07/19 04:57:57;;;;;;;17.88;9.55;;;19.10;99.90;;;;;;5102408;28;20111;-76
2022/07/19 05:00:23;;;;;;;12.20;8.30;;;19.10;99.90;;;;;;5108900;28;20068;-76
2022/07/19 05:02:49;;;;;;;17.13;9.65;;;19.10;99.90;;;;;;5108570;28;20043;-77
2022/07/19 05:05:14;;;;;;;16.00;9.73;;;19.20;99.90;;;;;;5108009;28;20027;-77
2022/07/19 05:07:41;;;;;;;16.50;9.35;;;19.20;99.90;;;;;;5103202;28;20024;-77
2022/07/19 05:10:07;;;;;;;11.60;8.40;;;19.30;99.90;;;;;;5104527;28;20031;-76
2022/07/19 05:12:33;;;;;;;12.90;9.15;;;19.30;99.90;;;;;;5106457;28;20550;-76
2022/07/19 05:14:59;;;;;;;12.77;8.85;;;19.40;99.90;;;;;;5107445;28;20038;-76
2022/07/19 05:17:25;;;;;;;15.50;9.23;;;19.40;99.90;;;;;;5108889;28;20035;-77
2022/07/19 05:19:51;;;;;;;14.32;8.98;;;19.40;99.90;;;;;;5109258;28;20035;-77
2022/07/19 05:22:17;;;;;;;12.57;9.00;;;19.50;99.90;;;;;;5103761;28;20019;-77
2022/07/19 05:24:42;;;;;;;13.75;8.48;;;19.60;99.90;;;;;;5091628;28;20028;-76
2022/07/19 05:27:08;;;;;;;12.45;9.07;;;19.60;99.90;;;;;;5108170;28;20103;-77
2022/07/19 05:29:34;;;;;;;13.10;9.45;;;19.60;99.90;;;;;;5092306;28;20046;-78
2022/07/19 05:32:00;;;;;;;15.57;9.60;;;19.70;99.90;;;;;;5105254;28;20028;-77
2022/07/19 05:34:25;;;;;;;12.27;8.98;;;19.80;99.90;;;;;;5107182;28;20426;-76
2022/07/19 05:36:51;;;;;;;12.45;8.63;;;19.80;99.90;;;;;;5105882;28;20032;-77
2022/07/19 05:39:16;;;;;;;12.05;8.82;;;19.90;99.90;;;;;;5106182;28;20114;-76
2022/07/19 05:41:44;;;;;;;14.93;8.85;;;19.90;99.90;;;;;;5102942;28;20034;-76
2022/07/19 05:44:09;;;;;;;13.02;8.77;;;20.00;99.90;;;;;;5111130;28;20026;-76
2022/07/19 05:46:40;;;;;;;12.18;8.23;;;20.00;99.90;;;;;;5102302;28;20019;-77
2022/07/19 05:49:07;;;;;;;11.23;7.78;;;20.10;99.90;;;;;;5105303;28;20066;-75
2022/07/19 05:51:33;;;;;;;13.10;8.13;;;20.10;99.90;;;;;;5118129;27;20487;-76
2022/07/19 05:54:00;;;;;;;11.80;7.72;;;20.20;99.90;;;;;;5108162;28;20070;-76
2022/07/19 05:56:26;;;;;;;11.63;8.43;;;20.30;99.90;;;;;;5108191;28;20172;-79
2022/07/19 05:58:53;;;;;;;14.05;7.82;;;20.30;99.90;;;;;;5110592;28;20110;-76
2022/07/19 06:01:19;;;;;;;12.63;7.88;;;20.40;99.90;;;;;;5111096;28;20027;-77
2022/07/19 06:03:51;;;;;;;11.68;8.35;;;20.40;99.90;;;;;;5091993;28;20026;-77
2022/07/19 06:06:18;;;;;;;11.70;8.32;;;20.50;99.90;;;;;;5109446;28;20040;-78
2022/07/19 06:08:44;;;;;;;13.93;9.23;;;20.60;99.90;;;;;;5106013;28;20031;-77
2022/07/19 06:11:10;;;;;;;17.80;10.13;;;20.60;99.90;;;;;;5110465;28;20024;-77
2022/07/19 06:13:36;;;;;;;15.50;10.15;;;20.70;99.90;;;;;;5104168;28;20035;-77
2022/07/19 06:16:03;;;;;;;15.43;10.10;;;20.90;99.90;;;;;;5110402;28;20032;-77
2022/07/19 06:18:34;;;;;;;12.15;8.80;;;20.90;99.90;;;;;;5109192;27;20027;-78
2022/07/19 06:21:12;;;;;;;17.17;8.98;;;21.00;99.90;;;;;;5104380;28;20519;-77
2022/07/19 06:23:39;;;;;;;11.90;7.78;;;21.10;99.90;;;;;;5109300;28;20138;-77
2022/07/19 06:26:06;;;;;;;14.88;7.85;;;21.20;99.90;;;;;;5108553;28;20016;-77
2022/07/19 06:28:32;;;;;;;12.02;7.72;;;21.20;99.90;;;;;;5108978;28;20020;-77
2022/07/19 06:30:58;;;;;;;13.23;7.75;;;21.30;99.90;;;;;;5107790;28;20453;-77
2022/07/19 06:33:24;;;;;;;14.60;8.13;;;21.40;99.90;;;;;;5105392;28;20140;-77
2022/07/19 06:35:50;;;;;;;13.82;7.85;;;21.50;99.90;;;;;;5108812;28;20390;-76
2022/07/19 06:38:16;;;;;;;14.07;7.95;;;21.60;99.90;;;;;;5106095;28;20036;-77
2022/07/19 06:40:41;;;;;;;14.63;7.90;;;21.70;99.90;;;;;;5110477;28;20024;-77
2022/07/19 06:43:08;;;;;;;16.02;7.93;;;21.70;99.90;;;;;;5101573;28;20031;-76
2022/07/19 06:45:33;;;;;;;15.43;7.38;;;21.80;99.90;;;;;;5108500;28;20083;-77
2022/07/19 06:47:59;;;;;;;13.60;7.35;;;21.90;99.90;;;;;;5107613;28;20032;-77
2022/07/19 06:50:25;;;;;;;15.10;7.60;;;22.00;99.90;;;;;;5108647;28;20028;-77
2022/07/19 06:52:51;;;;;;;15.57;8.10;;;22.00;99.90;;;;;;5106329;28;20397;-77
2022/07/19 06:55:17;;;;;;;15.63;7.68;;;22.10;99.60;;;;;;5109543;28;20032;-77
2022/07/19 06:57:42;;;;;;;17.58;7.28;;;22.10;99.50;;;;;;5090952;28;20024;-77
2022/07/19 07:00:09;;;;;;;16.13;8.32;;;22.20;99.20;;;;;;5112245;28;20501;-78
2022/07/19 07:02:39;;;;;;;15.88;7.30;;;22.30;98.70;;;;;;5114336;28;20453;-77
2022/07/19 07:05:06;;;;;;;11.20;6.90;;;22.40;97.80;;;;;;5100630;28;20496;-77
2022/07/19 07:07:32;;;;;;;13.68;6.35;;;22.40;98.00;;;;;;5109369;28;20027;-77
2022/07/19 07:09:59;;;;;;;19.33;7.47;;;22.50;97.40;;;;;;5109483;28;20027;-77
2022/07/19 07:12:25;;;;;;;16.17;7.50;;;22.50;97.50;;;;;;5107276;28;20024;-77
2022/07/19 07:14:50;;;;;;;13.95;7.43;;;22.70;97.50;;;;;;5108693;28;20142;-77
2022/07/19 07:17:16;;;;;;;13.27;7.20;;;22.70;97.50;;;;;;5107992;28;20085;-77
2022/07/19 07:19:42;;;;;;;14.90;6.95;;;22.80;97.60;;;;;;5105086;28;20547;-77
2022/07/19 07:22:07;;;;;;;20.10;8.20;;;22.90;97.30;;;;;;5108637;28;20105;-77
2022/07/19 07:24:33;;;;;;;13.52;7.38;;;22.90;97.10;;;;;;5106227;28;20107;-77
2022/07/19 07:26:59;;;;;;;18.85;7.70;;;23.00;97.10;;;;;;5105338;28;20095;-77
2022/07/19 07:29:24;;;;;;;12.80;7.30;;;23.10;96.60;;;;;;5105487;28;20031;-77
2022/07/19 07:31:50;;;;;;;19.10;7.72;;;23.10;96.70;;;;;;5107734;28;20028;-77
2022/07/19 07:34:17;;;;;;;16.75;7.25;;;23.10;96.70;;;;;;5105269;28;20088;-77
2022/07/19 07:36:44;;;;;;;15.93;6.15;;;23.20;96.60;;;;;;5107514;28;20038;-77
2022/07/19 07:39:10;;;;;;;15.95;7.65;;;23.20;96.20;;;;;;5088223;28;20080;-77
2022/07/19 07:41:36;;;;;;;16.20;6.95;;;23.30;95.50;;;;;;5105606;28;20270;-76
2022/07/19 07:44:02;;;;;;;16.52;7.63;;;23.40;95.90;;;;;;5107659;28;20107;-77
2022/07/19 07:46:28;;;;;;;12.88;6.65;;;23.50;94.80;;;;;;5105054;28;20023;-77
2022/07/19 07:48:54;;;;;;;23.30;7.65;;;23.50;95.10;;;;;;5117217;28;20023;-77
2022/07/19 07:51:19;;;;;;;9.38;5.95;;;23.60;94.50;;;;;;5103885;28;20092;-77
2022/07/19 07:53:45;;;;;;;16.38;6.85;;;23.70;93.80;;;;;;5107843;28;20168;-77
2022/07/19 07:56:11;;;;;;;10.88;6.35;;;23.80;94.00;;;;;;5090085;28;20028;-77
2022/07/19 07:58:37;;;;;;;11.25;5.97;;;23.90;93.80;;;;;;5097387;28;20360;-77
2022/07/19 08:01:03;;;;;;;13.48;6.13;;;23.90;92.70;;;;;;5110732;28;20020;-77
2022/07/19 08:03:29;;;;;;;11.52;5.65;;;24.00;92.10;;;;;;5108955;28;20391;-77
2022/07/19 08:05:57;;;;;;;9.77;5.75;;;24.00;91.40;;;;;;5110531;28;20020;-76
2022/07/19 08:08:26;;;;;;;13.45;6.35;;;24.20;91.70;;;;;;5104833;28;20213;-77
2022/07/19 08:10:53;;;;;;;10.77;5.97;;;24.20;91.60;;;;;;5104237;28;20054;-77
2022/07/19 08:13:19;;;;;;;7.80;5.35;;;24.20;91.50;;;;;;5103277;28;20118;-77
2022/07/19 08:15:45;;;;;;;8.38;5.30;;;24.30;91.60;;;;;;5101380;28;20103;-77
2022/07/19 08:18:10;;;;;;;10.80;5.68;;;24.40;91.70;;;;;;5101954;28;20161;-77
2022/07/19 08:20:36;;;;;;;8.75;5.50;;;24.40;91.50;;;;;;5105204;28;20031;-77
2022/07/19 08:23:02;;;;;;;12.05;6.18;;;24.50;91.60;;;;;;5103657;28;20038;-77
2022/07/19 08:25:28;;;;;;;9.32;5.05;;;24.50;91.30;;;;;;5109542;28;20106;-77
2022/07/19 08:27:53;;;;;;;12.02;5.93;;;24.70;91.10;;;;;;5108975;28;20015;-77
2022/07/19 08:30:19;;;;;;;14.07;5.57;;;24.70;91.10;;;;;;5109157;28;20024;-77
2022/07/19 08:32:45;;;;;;;12.43;5.88;;;24.70;90.70;;;;;;5108724;28;20031;-76
2022/07/19 08:35:12;;;;;;;8.27;5.57;;;24.80;90.10;;;;;;5110282;28;20107;-76
2022/07/19 08:37:38;;;;;;;8.43;6.28;;;24.80;90.00;;;;;;5109587;28;20020;-76
2022/07/19 08:40:05;;;;;;;10.75;5.47;;;24.90;88.70;;;;;;5105744;28;20081;-77
2022/07/19 08:42:31;;;;;;;9.40;5.90;;;25.00;87.80;;;;;;5106868;28;20028;-78
2022/07/19 08:45:01;;;;;;;9.52;6.03;;;25.10;88.70;;;;;;5103293;28;20422;-77
2022/07/19 08:47:28;;;;;;;10.27;5.72;;;25.10;85.90;;;;;;5089498;28;20447;-77
2022/07/19 08:49:56;;;;;;;10.48;5.78;;;25.20;86.70;;;;;;5104707;28;20059;-78
2022/07/19 08:52:22;;;;;;;12.27;5.65;;;25.20;84.00;;;;;;5083808;28;20032;-78
2022/07/19 08:54:48;;;;;;;8.85;5.88;;;25.20;83.80;;;;;;5106632;28;20066;-78
2022/07/19 08:59:58;;;;;;;8.93;5.00;;;25.40;80.90;;;;;;5110466;28;20326;-78
2022/07/19 09:02:24;;;;;;;12.05;5.53;;;25.50;81.90;;;;;;5110471;28;20032;-78
2022/07/19 09:05:00;;;;;;;9.07;4.85;;;25.50;81.90;;;;;;5106878;28;20034;-78
2022/07/19 09:07:26;;;;;;;7.43;4.90;;;25.50;80.50;;;;;;5108456;28;20020;-78
2022/07/19 09:09:52;;;;;;;9.70;4.95;;;25.60;80.70;;;;;;5106045;28;20446;-78
2022/07/19 09:12:18;;;;;;;15.40;5.65;;;25.60;80.90;;;;;;5111967;28;20035;-78
2022/07/19 09:14:53;;;;;;;7.47;5.00;;;25.70;80.80;;;;;;5111179;28;20550;-78
2022/07/19 09:17:20;;;;;;;6.88;4.38;;;25.70;81.20;;;;;;5109981;28;20521;-78
2022/07/19 09:19:49;;;;;;;6.47;4.47;;;25.80;80.10;;;;;;5108610;28;20502;-78
2022/07/19 09:22:18;;;;;;;7.40;5.50;;;25.90;79.50;;;;;;5101718;28;20054;-78
2022/07/19 09:24:47;;;;;;;105.22;77.88;;;25.90;80.10;;;;;;5109114;28;20484;-78
2022/07/19 09:27:15;;;;;;;43.92;32.67;;;26.10;79.10;;;;;;5109653;28;20035;-78
2022/07/19 09:29:43;;;;;;;17.45;12.13;;;26.10;77.80;;;;;;5110554;28;20031;-78
2022/07/19 09:32:16;;;;;;;9.90;6.38;;;26.20;75.50;;;;;;5110840;28;20059;-79
2022/07/19 09:35:01;;;;;;;6.53;4.72;;;26.20;75.20;;;;;;5111608;28;20490;-78
2022/07/19 09:37:30;;;;;;;7.63;4.22;;;26.30;75.50;;;;;;5110428;28;20027;-78
2022/07/19 09:39:57;;;;;;;6.65;4.45;;;26.30;75.20;;;;;;5108593;28;20031;-78
2022/07/19 09:42:33;;;;;;;6.97;4.20;;;26.40;74.50;;;;;;5108993;28;20028;-78
2022/07/19 09:45:01;;;;;;;6.22;4.13;;;26.40;75.30;;;;;;5108832;28;20433;-78
2022/07/19 09:47:31;;;;;;;5.03;4.53;;;26.40;76.50;;;;;;5108738;28;20494;-78
2022/07/19 09:49:57;;;;;;;;;;;26.50;75.50;;;;;;5111378;28;20283;-78
2022/07/19 09:52:24;;;;;;;7.72;4.57;;;26.60;73.90;;;;;;5111159;28;19908;-78
2022/07/19 09:54:51;;;;;;;8.55;4.63;;;26.70;72.80;;;;;;5110279;28;20027;-78
2022/07/19 09:57:22;;;;;;;5.55;4.18;;;26.80;74.10;;;;;;5107910;28;20441;-78
2022/07/19 09:59:51;;;;;;;6.55;4.60;;;26.90;74.10;;;;;;5107070;28;20483;-78
2022/07/19 10:02:21;;;;;;;7.10;4.35;;;26.90;74.20;;;;;;5109571;28;20100;-78
2022/07/19 10:04:46;;;;;;;8.75;4.63;;;26.90;73.80;;;;;;5109072;28;20941;-77
2022/07/19 10:07:15;;;;;;;8.20;4.05;;;27.00;67.90;;;;;;5110201;28;20024;-78
2022/07/19 10:09:41;;;;;;;8.32;4.43;;;27.20;65.70;;;;;;5107473;28;20391;-78
2022/07/19 10:12:07;;;;;;;6.10;4.30;;;27.30;65.00;;;;;;5110281;28;20091;-78
2022/07/19 10:14:33;;;;;;;4.65;3.55;;;27.40;64.90;;;;;;5108976;28;20030;-78
2022/07/19 10:17:22;;;;;;;5.63;3.90;;;27.30;65.40;;;;;;5107520;28;20039;-78
2022/07/19 10:19:49;;;;;;;8.52;4.40;;;27.40;65.20;;;;;;5109838;28;20106;-78
2022/07/19 10:22:18;;;;;;;9.57;3.80;;;27.40;64.90;;;;;;5110544;28;20019;-78
2022/07/19 10:24:49;;;;;;;12.32;4.95;;;27.50;62.70;;;;;;5110595;28;20023;-78
2022/07/19 10:27:33;;;;;;;6.85;3.90;;;27.50;62.10;;;;;;5092205;28;20441;-78
2022/07/19 10:30:11;;;;;;;5.97;4.00;;;27.60;63.40;;;;;;5109349;28;20111;-77
2022/07/19 10:32:41;;;;;;;8.18;3.95;;;27.60;63.80;;;;;;5111433;28;20059;-78
2022/07/19 10:35:18;;;;;;;4.90;3.83;;;27.70;61.60;;;;;;5109854;28;20102;-78
2022/07/19 10:37:46;;;;;;;7.70;4.07;;;27.90;63.50;;;;;;5108523;28;20049;-78
2022/07/19 10:40:12;;;;;;;5.35;4.10;;;27.80;63.40;;;;;;5111023;28;20028;-78
2022/07/19 10:43:05;;;;;;;5.38;3.60;;;27.90;62.70;;;;;;5108858;28;20022;-77
2022/07/19 10:45:30;;;;;;;7.10;4.07;;;28.00;60.80;;;;;;5110661;28;20027;-76
2022/07/19 10:48:03;;;;;;;5.93;3.70;;;28.10;61.90;;;;;;5109486;28;20031;-77
2022/07/19 10:50:53;;;;;;;6.50;4.32;;;28.10;63.30;;;;;;5108839;28;20200;-78
2022/07/19 10:53:40;;;;;;;6.18;3.67;;;28.20;60.50;;;;;;5110742;28;20394;-77
2022/07/19 10:56:19;;;;;;;4.80;3.55;;;28.30;61.20;;;;;;5108923;28;20180;-77
2022/07/19 10:58:56;;;;;;;6.47;3.67;;;28.20;62.00;;;;;;5118666;28;20415;-77
2022/07/19 11:01:24;;;;;;;4.22;3.17;;;28.30;59.00;;;;;;5109491;28;20039;-77
2022/07/19 11:03:51;;;;;;;4.47;3.42;;;28.30;58.70;;;;;;5109082;28;20039;-78
2022/07/19 11:06:24;;;;;;;4.72;3.47;;;28.40;56.90;;;;;;5110752;28;20411;-77
2022/07/19 11:08:57;;;;;;;5.22;3.33;;;28.50;58.20;;;;;;5108528;28;20024;-77
2022/07/19 11:11:25;;;;;;;6.40;3.80;;;28.60;57.10;;;;;;5108473;28;20390;-78
2022/07/19 11:13:57;;;;;;;4.68;3.42;;;28.70;54.80;;;;;;5108961;28;20399;-78
2022/07/19 11:16:28;;;;;;;4.28;3.45;;;28.90;56.20;;;;;;5111513;28;20088;-77
2022/07/19 11:19:08;;;;;;;3.75;3.08;;;29.20;55.40;;;;;;5110081;28;20111;-78
2022/07/19 11:21:36;;;;;;;4.57;3.70;;;29.50;56.10;;;;;;5109570;28;20024;-78
2022/07/19 11:24:03;;;;;;;4.10;3.28;;;29.90;55.60;;;;;;5116692;28;20253;-79
2022/07/19 11:26:38;;;;;;;4.57;3.47;;;30.80;54.20;;;;;;5118019;28;20106;-78
2022/07/19 11:29:05;;;;;;;7.70;3.72;;;32.20;53.00;;;;;;5111703;28;20030;-79
2022/07/19 11:31:31;;;;;;;5.25;3.50;;;33.50;48.90;;;;;;5113982;28;20042;-76
2022/07/19 11:33:57;;;;;;;4.53;3.63;;;34.70;46.70;;;;;;5114078;28;20027;-76
2022/07/19 11:36:24;;;;;;;3.88;3.10;;;36.10;46.00;;;;;;5095690;28;20024;-77
2022/07/19 11:39:00;;;;;;;4.78;2.90;;;37.30;42.40;;;;;;5113571;28;20047;-78
2022/07/19 11:41:29;;;;;;;4.22;2.88;;;38.10;41.70;;;;;;5111757;28;20209;-77
2022/07/19 11:44:01;;;;;;;4.05;2.72;;;39.50;40.50;;;;;;5112009;28;20431;-78
2022/07/19 11:46:37;;;;;;;3.30;2.70;;;40.60;38.80;;;;;;5111500;28;20063;-78
2022/07/19 11:49:05;;;;;;;2.80;2.60;;;41.50;37.70;;;;;;5110949;28;20046;-79
2022/07/19 11:51:32;;;;;;;3.50;3.15;;;42.20;36.90;;;;;;5111482;28;20040;-78
2022/07/19 11:54:00;;;;;;;3.40;2.90;;;42.10;34.90;;;;;;5112733;28;20070;-78
2022/07/19 11:56:29;;;;;;;4.90;3.28;;;42.20;35.50;;;;;;5110940;28;20395;-77
2022/07/19 11:58:57;;;;;;;4.13;3.80;;;41.80;34.40;;;;;;5111268;28;20027;-78
2022/07/19 12:01:42;;;;;;;3.25;2.95;;;41.00;35.70;;;;;;5112402;27;20055;-78
2022/07/19 12:04:11;;;;;;;6.65;3.40;;;40.70;35.60;;;;;;5113054;28;20525;-78
2022/07/19 12:06:39;;;;;;;;;;;40.20;36.40;;;;;;5114695;28;20031;-77
2022/07/19 12:09:18;;;;;;;4.22;3.20;;;39.50;36.90;;;;;;5110493;28;19904;-78
2022/07/19 12:11:49;;;;;;;3.72;3.42;;;39.40;36.90;;;;;;5113677;28;20522;-78
2022/07/19 12:14:26;;;;;;;5.20;3.38;;;39.20;37.60;;;;;;5112830;28;20070;-78
2022/07/19 12:17:16;;;;;;;5.25;3.40;;;39.10;36.70;;;;;;5111218;28;20043;-78
2022/07/19 12:19:47;;;;;;;5.05;3.42;;;39.40;36.50;;;;;;5112588;28;20049;-78
2022/07/19 12:22:29;;;;;;;3.65;3.35;;;39.50;36.80;;;;;;5097107;28;20024;-78
2022/07/19 12:24:54;;;;;;;4.55;3.15;;;39.00;35.90;;;;;;5113653;28;20087;-79
2022/07/19 12:27:20;;;;;;;5.50;3.17;;;39.20;35.90;;;;;;5114441;28;20526;-78
2022/07/19 12:29:48;;;;;;;4.05;3.38;;;39.00;34.60;;;;;;5112019;28;20024;-79
2022/07/19 12:32:25;;;;;;;4.85;3.83;;;38.90;36.90;;;;;;5112016;28;20031;-79
2022/07/19 12:34:57;;;;;;;3.80;3.47;;;39.00;37.30;;;;;;5111874;28;20065;-78
2022/07/19 12:37:41;;;;;;;3.10;2.80;;;39.10;36.00;;;;;;5112200;28;20023;-78
2022/07/19 12:40:08;;;;;;;3.28;2.90;;;39.70;35.60;;;;;;5110504;28;20068;-77
2022/07/19 12:42:47;;;;;;;3.22;2.92;;;39.60;33.80;;;;;;5112584;28;20019;-78
2022/07/19 12:45:21;;;;;;;7.20;3.55;;;39.70;33.50;;;;;;5111315;28;20027;-78
2022/07/19 12:47:49;;;;;;;6.43;3.08;;;39.40;34.60;;;;;;5112690;28;20039;-78